sensor_id;sensor_type;location;lat;lon;timestamp;P1;durP1;ratioP1;P2;durP2;ratioP2
9671;SDS011;4874;43.568;27.824;2022-10-17T00:01:29;8.77;;;5.00;;
9671;SDS011;4874;43.568;27.824;2022-10-17T00:06:22;10.50;;;5.18;;
9671;SDS011;4874;43.568;27.824;2022-10-17T00:08:49;13.18;;;5.80;;
9671;SDS011;4874;43.568;27.824;2022-10-17T00:13:47;11.68;;;6.13;;
9671;SDS011;4874;43.568;27.824;2022-10-17T00:16:15;12.60;;;5.75;;
9671;SDS011;4874;43.568;27.824;2022-10-17T00:18:48;10.50;;;5.85;;
9671;SDS011;4874;43.568;27.824;2022-10-17T00:21:15;10.68;;;5.50;;
9671;SDS011;4874;43.568;27.824;2022-10-17T00:23:44;15.90;;;6.53;;
9671;SDS011;4874;43.568;27.824;2022-10-17T00:26:11;11.10;;;6.00;;
9671;SDS011;4874;43.568;27.824;2022-10-17T00:28:38;11.07;;;5.95;;
9671;SDS011;4874;43.568;27.824;2022-10-17T00:33:33;13.70;;;6.43;;
9671;SDS011;4874;43.568;27.824;2022-10-17T00:36:04;10.50;;;4.93;;
9671;SDS011;4874;43.568;27.824;2022-10-17T00:38:33;12.13;;;5.95;;
9671;SDS011;4874;43.568;27.824;2022-10-17T00:40:59;12.85;;;5.75;;
9671;SDS011;4874;43.568;27.824;2022-10-17T00:43:27;11.65;;;5.85;;
9671;SDS011;4874;43.568;27.824;2022-10-17T00:45:55;10.25;;;5.47;;
9671;SDS011;4874;43.568;27.824;2022-10-17T00:48:22;10.20;;;5.65;;
9671;SDS011;4874;43.568;27.824;2022-10-17T00:50:51;12.43;;;5.90;;
9671;SDS011;4874;43.568;27.824;2022-10-17T00:53:17;10.88;;;5.65;;
9671;SDS011;4874;43.568;27.824;2022-10-17T00:55:48;12.93;;;5.95;;
9671;SDS011;4874;43.568;27.824;2022-10-17T00:58:18;14.30;;;5.85;;
9671;SDS011;4874;43.568;27.824;2022-10-17T01:00:46;11.30;;;5.93;;
9671;SDS011;4874;43.568;27.824;2022-10-17T01:03:13;12.85;;;6.32;;
9671;SDS011;4874;43.568;27.824;2022-10-17T01:05:41;11.02;;;5.95;;
9671;SDS011;4874;43.568;27.824;2022-10-17T01:08:08;9.43;;;5.22;;
9671;SDS011;4874;43.568;27.824;2022-10-17T01:10:42;10.48;;;5.55;;
9671;SDS011;4874;43.568;27.824;2022-10-17T01:16:37;8.68;;;5.43;;
9671;SDS011;4874;43.568;27.824;2022-10-17T01:22:04;11.88;;;5.70;;
9671;SDS011;4874;43.568;27.824;2022-10-17T01:24:46;14.10;;;6.05;;
9671;SDS011;4874;43.568;27.824;2022-10-17T01:34:59;11.60;;;5.13;;
9671;SDS011;4874;43.568;27.824;2022-10-17T01:37:55;16.23;;;5.38;;
9671;SDS011;4874;43.568;27.824;2022-10-17T01:43:20;11.45;;;5.60;;
9671;SDS011;4874;43.568;27.824;2022-10-17T01:45:52;10.25;;;4.97;;
9671;SDS011;4874;43.568;27.824;2022-10-17T01:48:33;10.65;;;5.00;;
9671;SDS011;4874;43.568;27.824;2022-10-17T01:51:05;9.43;;;4.25;;
9671;SDS011;4874;43.568;27.824;2022-10-17T01:53:46;9.93;;;4.47;;
9671;SDS011;4874;43.568;27.824;2022-10-17T01:56:18;8.43;;;4.40;;
9671;SDS011;4874;43.568;27.824;2022-10-17T01:58:58;9.55;;;5.00;;
9671;SDS011;4874;43.568;27.824;2022-10-17T02:01:28;7.78;;;4.55;;
9671;SDS011;4874;43.568;27.824;2022-10-17T02:03:56;11.73;;;4.60;;
9671;SDS011;4874;43.568;27.824;2022-10-17T02:06:24;8.38;;;4.43;;
9671;SDS011;4874;43.568;27.824;2022-10-17T02:08:51;9.48;;;4.25;;
9671;SDS011;4874;43.568;27.824;2022-10-17T02:11:21;10.57;;;4.32;;
9671;SDS011;4874;43.568;27.824;2022-10-17T02:16:42;8.13;;;3.85;;
9671;SDS011;4874;43.568;27.824;2022-10-17T02:22:15;11.35;;;4.55;;
9671;SDS011;4874;43.568;27.824;2022-10-17T02:24:56;8.88;;;4.55;;
9671;SDS011;4874;43.568;27.824;2022-10-17T02:32:49;6.75;;;3.60;;
9671;SDS011;4874;43.568;27.824;2022-10-17T02:35:20;8.32;;;3.83;;
9671;SDS011;4874;43.568;27.824;2022-10-17T02:37:49;6.95;;;3.33;;
9671;SDS011;4874;43.568;27.824;2022-10-17T02:40:17;7.40;;;3.85;;
9671;SDS011;4874;43.568;27.824;2022-10-17T02:42:47;8.63;;;3.90;;
9671;SDS011;4874;43.568;27.824;2022-10-17T02:45:15;5.95;;;3.33;;
9671;SDS011;4874;43.568;27.824;2022-10-17T02:47:46;7.28;;;3.92;;
9671;SDS011;4874;43.568;27.824;2022-10-17T02:50:13;7.93;;;3.83;;
9671;SDS011;4874;43.568;27.824;2022-10-17T02:53:14;5.38;;;3.40;;
9671;SDS011;4874;43.568;27.824;2022-10-17T02:55:47;6.80;;;3.35;;
9671;SDS011;4874;43.568;27.824;2022-10-17T02:58:19;8.02;;;3.50;;
9671;SDS011;4874;43.568;27.824;2022-10-17T03:00:48;8.85;;;4.00;;
9671;SDS011;4874;43.568;27.824;2022-10-17T03:03:18;7.15;;;3.58;;
9671;SDS011;4874;43.568;27.824;2022-10-17T03:05:51;8.50;;;3.88;;
9671;SDS011;4874;43.568;27.824;2022-10-17T03:08:19;8.32;;;4.15;;
9671;SDS011;4874;43.568;27.824;2022-10-17T03:10:46;7.43;;;4.05;;
9671;SDS011;4874;43.568;27.824;2022-10-17T03:13:13;8.35;;;3.78;;
9671;SDS011;4874;43.568;27.824;2022-10-17T03:15:40;6.15;;;3.83;;
9671;SDS011;4874;43.568;27.824;2022-10-17T03:18:07;9.20;;;4.40;;
9671;SDS011;4874;43.568;27.824;2022-10-17T03:20:34;7.80;;;4.03;;
9671;SDS011;4874;43.568;27.824;2022-10-17T03:23:01;9.60;;;3.72;;
9671;SDS011;4874;43.568;27.824;2022-10-17T03:25:27;8.82;;;3.30;;
9671;SDS011;4874;43.568;27.824;2022-10-17T03:30:23;6.50;;;3.85;;
9671;SDS011;4874;43.568;27.824;2022-10-17T03:32:49;8.95;;;4.43;;
9671;SDS011;4874;43.568;27.824;2022-10-17T03:35:16;9.77;;;4.38;;
9671;SDS011;4874;43.568;27.824;2022-10-17T03:37:43;12.10;;;4.75;;
9671;SDS011;4874;43.568;27.824;2022-10-17T03:40:09;8.63;;;4.40;;
9671;SDS011;4874;43.568;27.824;2022-10-17T03:42:36;8.98;;;5.32;;
9671;SDS011;4874;43.568;27.824;2022-10-17T03:45:03;11.60;;;5.38;;
9671;SDS011;4874;43.568;27.824;2022-10-17T03:47:30;11.70;;;4.68;;
9671;SDS011;4874;43.568;27.824;2022-10-17T03:49:57;8.93;;;4.38;;
9671;SDS011;4874;43.568;27.824;2022-10-17T03:52:24;11.35;;;4.65;;
9671;SDS011;4874;43.568;27.824;2022-10-17T03:54:50;9.30;;;4.50;;
9671;SDS011;4874;43.568;27.824;2022-10-17T03:59:44;9.73;;;4.57;;
9671;SDS011;4874;43.568;27.824;2022-10-17T04:02:10;8.20;;;4.35;;
9671;SDS011;4874;43.568;27.824;2022-10-17T04:07:04;10.02;;;3.72;;
9671;SDS011;4874;43.568;27.824;2022-10-17T04:09:30;6.95;;;3.60;;
9671;SDS011;4874;43.568;27.824;2022-10-17T04:11:57;9.23;;;4.20;;
9671;SDS011;4874;43.568;27.824;2022-10-17T04:14:24;7.38;;;3.95;;
9671;SDS011;4874;43.568;27.824;2022-10-17T04:19:18;8.70;;;3.72;;
9671;SDS011;4874;43.568;27.824;2022-10-17T04:21:45;7.78;;;3.63;;
9671;SDS011;4874;43.568;27.824;2022-10-17T04:26:38;6.85;;;3.72;;
9671;SDS011;4874;43.568;27.824;2022-10-17T04:29:05;8.30;;;4.10;;
9671;SDS011;4874;43.568;27.824;2022-10-17T04:31:32;9.20;;;4.05;;
9671;SDS011;4874;43.568;27.824;2022-10-17T04:33:58;6.60;;;4.03;;
9671;SDS011;4874;43.568;27.824;2022-10-17T04:36:25;7.68;;;3.90;;
9671;SDS011;4874;43.568;27.824;2022-10-17T04:41:18;6.65;;;3.55;;
9671;SDS011;4874;43.568;27.824;2022-10-17T04:46:15;7.22;;;3.97;;
9671;SDS011;4874;43.568;27.824;2022-10-17T04:48:41;13.02;;;5.85;;
9671;SDS011;4874;43.568;27.824;2022-10-17T04:53:39;9.48;;;3.45;;
9671;SDS011;4874;43.568;27.824;2022-10-17T04:56:08;7.00;;;3.45;;
9671;SDS011;4874;43.568;27.824;2022-10-17T04:58:37;7.68;;;3.92;;
9671;SDS011;4874;43.568;27.824;2022-10-17T05:01:08;9.75;;;4.10;;
9671;SDS011;4874;43.568;27.824;2022-10-17T05:03:36;11.07;;;4.57;;
9671;SDS011;4874;43.568;27.824;2022-10-17T05:08:34;8.38;;;3.78;;
9671;SDS011;4874;43.568;27.824;2022-10-17T05:11:02;8.30;;;3.97;;
9671;SDS011;4874;43.568;27.824;2022-10-17T05:13:29;6.93;;;4.10;;
9671;SDS011;4874;43.568;27.824;2022-10-17T05:15:59;9.27;;;3.90;;
9671;SDS011;4874;43.568;27.824;2022-10-17T05:18:27;8.60;;;3.78;;
9671;SDS011;4874;43.568;27.824;2022-10-17T05:20:54;11.20;;;5.60;;
9671;SDS011;4874;43.568;27.824;2022-10-17T05:23:21;6.80;;;3.90;;
9671;SDS011;4874;43.568;27.824;2022-10-17T05:28:18;9.02;;;3.83;;
9671;SDS011;4874;43.568;27.824;2022-10-17T05:30:45;10.00;;;3.58;;
9671;SDS011;4874;43.568;27.824;2022-10-17T05:35:38;7.55;;;3.63;;
9671;SDS011;4874;43.568;27.824;2022-10-17T05:38:05;7.68;;;3.22;;
9671;SDS011;4874;43.568;27.824;2022-10-17T05:40:32;7.50;;;3.20;;
9671;SDS011;4874;43.568;27.824;2022-10-17T05:42:59;7.32;;;4.10;;
9671;SDS011;4874;43.568;27.824;2022-10-17T05:45:25;9.45;;;5.78;;
9671;SDS011;4874;43.568;27.824;2022-10-17T05:47:52;10.07;;;4.50;;
9671;SDS011;4874;43.568;27.824;2022-10-17T05:50:19;9.40;;;3.92;;
9671;SDS011;4874;43.568;27.824;2022-10-17T05:52:53;7.15;;;3.50;;
9671;SDS011;4874;43.568;27.824;2022-10-17T05:55:21;7.25;;;3.83;;
9671;SDS011;4874;43.568;27.824;2022-10-17T05:57:48;9.63;;;4.40;;
9671;SDS011;4874;43.568;27.824;2022-10-17T06:00:15;12.57;;;5.30;;
9671;SDS011;4874;43.568;27.824;2022-10-17T06:02:42;9.27;;;4.82;;
9671;SDS011;4874;43.568;27.824;2022-10-17T06:05:11;13.48;;;6.13;;
9671;SDS011;4874;43.568;27.824;2022-10-17T06:07:39;13.98;;;7.20;;
9671;SDS011;4874;43.568;27.824;2022-10-17T06:10:06;17.80;;;10.05;;
9671;SDS011;4874;43.568;27.824;2022-10-17T06:12:35;10.20;;;5.40;;
9671;SDS011;4874;43.568;27.824;2022-10-17T06:15:02;8.60;;;4.63;;
9671;SDS011;4874;43.568;27.824;2022-10-17T06:17:29;8.90;;;4.50;;
9671;SDS011;4874;43.568;27.824;2022-10-17T06:22:22;66.57;;;39.03;;
9671;SDS011;4874;43.568;27.824;2022-10-17T06:27:15;14.93;;;4.68;;
9671;SDS011;4874;43.568;27.824;2022-10-17T06:29:42;8.45;;;4.45;;
9671;SDS011;4874;43.568;27.824;2022-10-17T06:34:36;11.65;;;5.65;;
9671;SDS011;4874;43.568;27.824;2022-10-17T06:37:03;7.35;;;3.50;;
9671;SDS011;4874;43.568;27.824;2022-10-17T06:41:59;7.30;;;3.67;;
9671;SDS011;4874;43.568;27.824;2022-10-17T06:44:26;6.15;;;3.30;;
9671;SDS011;4874;43.568;27.824;2022-10-17T06:46:57;7.05;;;3.63;;
9671;SDS011;4874;43.568;27.824;2022-10-17T06:49:25;8.80;;;3.92;;
9671;SDS011;4874;43.568;27.824;2022-10-17T06:51:53;10.43;;;4.03;;
9671;SDS011;4874;43.568;27.824;2022-10-17T06:54:20;7.35;;;3.67;;
9671;SDS011;4874;43.568;27.824;2022-10-17T06:56:46;8.35;;;3.90;;
9671;SDS011;4874;43.568;27.824;2022-10-17T06:59:14;7.40;;;3.88;;
9671;SDS011;4874;43.568;27.824;2022-10-17T07:01:41;12.02;;;5.25;;
9671;SDS011;4874;43.568;27.824;2022-10-17T07:04:09;18.98;;;5.93;;
9671;SDS011;4874;43.568;27.824;2022-10-17T07:06:36;10.05;;;4.78;;
9671;SDS011;4874;43.568;27.824;2022-10-17T07:09:04;10.48;;;5.28;;
9671;SDS011;4874;43.568;27.824;2022-10-17T07:11:32;12.35;;;5.25;;
9671;SDS011;4874;43.568;27.824;2022-10-17T07:14:02;10.60;;;5.53;;
9671;SDS011;4874;43.568;27.824;2022-10-17T07:16:29;10.27;;;5.38;;
9671;SDS011;4874;43.568;27.824;2022-10-17T07:18:55;10.48;;;5.22;;
9671;SDS011;4874;43.568;27.824;2022-10-17T07:21:22;12.00;;;4.65;;
9671;SDS011;4874;43.568;27.824;2022-10-17T07:23:49;11.65;;;5.20;;
9671;SDS011;4874;43.568;27.824;2022-10-17T07:26:16;10.65;;;5.15;;
9671;SDS011;4874;43.568;27.824;2022-10-17T07:28:44;10.38;;;4.18;;
9671;SDS011;4874;43.568;27.824;2022-10-17T07:31:14;9.48;;;4.28;;
9671;SDS011;4874;43.568;27.824;2022-10-17T07:33:42;9.35;;;4.78;;
9671;SDS011;4874;43.568;27.824;2022-10-17T07:36:15;7.88;;;4.85;;
9671;SDS011;4874;43.568;27.824;2022-10-17T07:38:42;8.75;;;4.72;;
9671;SDS011;4874;43.568;27.824;2022-10-17T07:41:10;9.38;;;3.92;;
9671;SDS011;4874;43.568;27.824;2022-10-17T07:43:41;8.82;;;4.00;;
9671;SDS011;4874;43.568;27.824;2022-10-17T07:46:08;15.55;;;4.00;;
9671;SDS011;4874;43.568;27.824;2022-10-17T07:48:39;6.45;;;3.97;;
9671;SDS011;4874;43.568;27.824;2022-10-17T07:51:07;6.10;;;3.72;;
9671;SDS011;4874;43.568;27.824;2022-10-17T07:53:36;17.10;;;5.38;;
9671;SDS011;4874;43.568;27.824;2022-10-17T07:56:05;9.50;;;3.78;;
9671;SDS011;4874;43.568;27.824;2022-10-17T07:58:35;6.57;;;3.92;;
9671;SDS011;4874;43.568;27.824;2022-10-17T08:01:04;14.07;;;4.10;;
9671;SDS011;4874;43.568;27.824;2022-10-17T08:03:33;6.97;;;3.65;;
9671;SDS011;4874;43.568;27.824;2022-10-17T08:06:00;8.52;;;3.63;;
9671;SDS011;4874;43.568;27.824;2022-10-17T08:08:28;9.30;;;3.85;;
9671;SDS011;4874;43.568;27.824;2022-10-17T08:10:55;9.25;;;3.50;;
9671;SDS011;4874;43.568;27.824;2022-10-17T08:13:27;5.85;;;3.53;;
9671;SDS011;4874;43.568;27.824;2022-10-17T08:15:57;7.72;;;3.80;;
9671;SDS011;4874;43.568;27.824;2022-10-17T08:18:25;7.95;;;3.70;;
9671;SDS011;4874;43.568;27.824;2022-10-17T08:20:52;5.70;;;2.75;;
9671;SDS011;4874;43.568;27.824;2022-10-17T08:23:20;7.97;;;3.72;;
9671;SDS011;4874;43.568;27.824;2022-10-17T08:25:47;7.00;;;3.60;;
9671;SDS011;4874;43.568;27.824;2022-10-17T08:28:14;7.40;;;3.28;;
9671;SDS011;4874;43.568;27.824;2022-10-17T08:30:40;6.80;;;3.22;;
9671;SDS011;4874;43.568;27.824;2022-10-17T08:33:07;6.07;;;3.30;;
9671;SDS011;4874;43.568;27.824;2022-10-17T08:35:34;6.35;;;3.70;;
9671;SDS011;4874;43.568;27.824;2022-10-17T08:38:00;6.15;;;3.17;;
9671;SDS011;4874;43.568;27.824;2022-10-17T08:40:27;8.50;;;3.67;;
9671;SDS011;4874;43.568;27.824;2022-10-17T08:45:58;7.82;;;3.50;;
9671;SDS011;4874;43.568;27.824;2022-10-17T08:48:29;13.10;;;4.18;;
9671;SDS011;4874;43.568;27.824;2022-10-17T08:51:01;6.50;;;3.35;;
9671;SDS011;4874;43.568;27.824;2022-10-17T08:56:49;10.23;;;3.85;;
9671;SDS011;4874;43.568;27.824;2022-10-17T08:59:25;6.05;;;3.20;;
9671;SDS011;4874;43.568;27.824;2022-10-17T09:01:57;6.75;;;3.22;;
9671;SDS011;4874;43.568;27.824;2022-10-17T09:07:17;6.90;;;2.90;;
9671;SDS011;4874;43.568;27.824;2022-10-17T09:12:49;6.63;;;3.90;;
9671;SDS011;4874;43.568;27.824;2022-10-17T09:18:16;9.05;;;3.15;;
9671;SDS011;4874;43.568;27.824;2022-10-17T09:20:46;5.38;;;3.05;;
9671;SDS011;4874;43.568;27.824;2022-10-17T09:26:28;7.60;;;2.85;;
9671;SDS011;4874;43.568;27.824;2022-10-17T09:28:56;10.82;;;3.30;;
9671;SDS011;4874;43.568;27.824;2022-10-17T09:31:26;6.15;;;3.15;;
9671;SDS011;4874;43.568;27.824;2022-10-17T09:33:59;6.25;;;3.05;;
9671;SDS011;4874;43.568;27.824;2022-10-17T09:36:29;8.48;;;3.20;;
9671;SDS011;4874;43.568;27.824;2022-10-17T09:39:02;7.68;;;4.05;;
9671;SDS011;4874;43.568;27.824;2022-10-17T09:41:49;8.30;;;3.15;;
9671;SDS011;4874;43.568;27.824;2022-10-17T09:49:33;6.13;;;2.75;;
9671;SDS011;4874;43.568;27.824;2022-10-17T09:52:02;8.10;;;2.85;;
9671;SDS011;4874;43.568;27.824;2022-10-17T09:57:19;5.63;;;2.50;;
9671;SDS011;4874;43.568;27.824;2022-10-17T09:59:55;9.50;;;2.60;;
9671;SDS011;4874;43.568;27.824;2022-10-17T10:02:25;4.70;;;2.90;;
9671;SDS011;4874;43.568;27.824;2022-10-17T10:05:04;4.82;;;2.50;;
9671;SDS011;4874;43.568;27.824;2022-10-17T10:07:45;5.28;;;2.20;;
9671;SDS011;4874;43.568;27.824;2022-10-17T10:10:28;4.50;;;2.20;;
9671;SDS011;4874;43.568;27.824;2022-10-17T10:15:48;3.67;;;1.92;;
9671;SDS011;4874;43.568;27.824;2022-10-17T10:24:02;11.35;;;3.33;;
9671;SDS011;4874;43.568;27.824;2022-10-17T10:26:45;7.25;;;2.53;;
9671;SDS011;4874;43.568;27.824;2022-10-17T10:32:05;6.70;;;1.90;;
9671;SDS011;4874;43.568;27.824;2022-10-17T10:37:22;5.90;;;2.42;;
9671;SDS011;4874;43.568;27.824;2022-10-17T10:40:03;3.88;;;2.28;;
9671;SDS011;4874;43.568;27.824;2022-10-17T10:42:41;5.85;;;2.65;;
9671;SDS011;4874;43.568;27.824;2022-10-17T10:50:59;6.45;;;2.65;;
9671;SDS011;4874;43.568;27.824;2022-10-17T11:01:47;6.25;;;2.30;;
9671;SDS011;4874;43.568;27.824;2022-10-17T11:07:13;7.38;;;3.15;;
9671;SDS011;4874;43.568;27.824;2022-10-17T11:22:33;4.93;;;2.70;;
9671;SDS011;4874;43.568;27.824;2022-10-17T11:25:04;5.68;;;2.72;;
9671;SDS011;4874;43.568;27.824;2022-10-17T11:27:44;6.07;;;2.25;;
9671;SDS011;4874;43.568;27.824;2022-10-17T11:30:11;5.20;;;2.67;;
9671;SDS011;4874;43.568;27.824;2022-10-17T11:32:42;4.57;;;2.47;;
9671;SDS011;4874;43.568;27.824;2022-10-17T11:37:48;3.35;;;2.10;;
9671;SDS011;4874;43.568;27.824;2022-10-17T11:40:24;7.63;;;2.47;;
9671;SDS011;4874;43.568;27.824;2022-10-17T11:42:58;5.28;;;2.30;;
9671;SDS011;4874;43.568;27.824;2022-10-17T11:45:32;9.00;;;2.35;;
9671;SDS011;4874;43.568;27.824;2022-10-17T11:48:11;5.82;;;2.70;;
9671;SDS011;4874;43.568;27.824;2022-10-17T11:50:47;8.35;;;2.13;;
9671;SDS011;4874;43.568;27.824;2022-10-17T11:59:33;4.97;;;2.88;;
9671;SDS011;4874;43.568;27.824;2022-10-17T12:02:44;4.30;;;2.28;;
9671;SDS011;4874;43.568;27.824;2022-10-17T12:10:50;6.70;;;2.23;;
9671;SDS011;4874;43.568;27.824;2022-10-17T12:18:45;5.47;;;2.33;;
9671;SDS011;4874;43.568;27.824;2022-10-17T12:24:25;7.93;;;2.63;;
9671;SDS011;4874;43.568;27.824;2022-10-17T12:26:53;5.72;;;3.15;;
9671;SDS011;4874;43.568;27.824;2022-10-17T12:29:26;9.20;;;2.92;;
9671;SDS011;4874;43.568;27.824;2022-10-17T12:32:08;6.53;;;3.35;;
9671;SDS011;4874;43.568;27.824;2022-10-17T12:34:37;5.05;;;2.50;;
9671;SDS011;4874;43.568;27.824;2022-10-17T12:37:08;9.18;;;2.60;;
9671;SDS011;4874;43.568;27.824;2022-10-17T12:42:19;8.30;;;2.70;;
9671;SDS011;4874;43.568;27.824;2022-10-17T12:44:57;5.40;;;2.53;;
9671;SDS011;4874;43.568;27.824;2022-10-17T12:49:50;5.63;;;2.70;;
9671;SDS011;4874;43.568;27.824;2022-10-17T12:52:22;8.20;;;2.58;;
9671;SDS011;4874;43.568;27.824;2022-10-17T12:55:16;9.00;;;3.38;;
9671;SDS011;4874;43.568;27.824;2022-10-17T13:02:46;5.65;;;2.78;;
9671;SDS011;4874;43.568;27.824;2022-10-17T13:05:20;8.90;;;4.15;;
9671;SDS011;4874;43.568;27.824;2022-10-17T13:07:54;7.13;;;3.55;;
9671;SDS011;4874;43.568;27.824;2022-10-17T13:10:25;8.35;;;3.13;;
9671;SDS011;4874;43.568;27.824;2022-10-17T13:15:53;7.07;;;2.85;;
9671;SDS011;4874;43.568;27.824;2022-10-17T13:18:22;9.43;;;3.00;;
9671;SDS011;4874;43.568;27.824;2022-10-17T13:23:47;8.35;;;3.50;;
9671;SDS011;4874;43.568;27.824;2022-10-17T13:26:17;6.10;;;2.78;;
9671;SDS011;4874;43.568;27.824;2022-10-17T13:31:43;4.78;;;2.22;;
9671;SDS011;4874;43.568;27.824;2022-10-17T13:34:28;7.53;;;3.25;;
9671;SDS011;4874;43.568;27.824;2022-10-17T13:36:57;5.95;;;2.70;;
9671;SDS011;4874;43.568;27.824;2022-10-17T13:39:50;6.07;;;2.78;;
9671;SDS011;4874;43.568;27.824;2022-10-17T13:42:36;7.18;;;3.00;;
9671;SDS011;4874;43.568;27.824;2022-10-17T13:45:09;6.25;;;3.08;;
9671;SDS011;4874;43.568;27.824;2022-10-17T13:47:44;7.88;;;2.58;;
9671;SDS011;4874;43.568;27.824;2022-10-17T13:50:23;5.75;;;2.75;;
9671;SDS011;4874;43.568;27.824;2022-10-17T13:53:16;5.65;;;2.97;;
9671;SDS011;4874;43.568;27.824;2022-10-17T14:01:17;8.27;;;2.53;;
9671;SDS011;4874;43.568;27.824;2022-10-17T14:03:46;8.90;;;3.05;;
9671;SDS011;4874;43.568;27.824;2022-10-17T14:09:06;6.00;;;2.70;;
9671;SDS011;4874;43.568;27.824;2022-10-17T14:11:42;8.95;;;2.65;;
9671;SDS011;4874;43.568;27.824;2022-10-17T14:14:17;7.93;;;2.95;;
9671;SDS011;4874;43.568;27.824;2022-10-17T14:19:21;6.93;;;2.87;;
9671;SDS011;4874;43.568;27.824;2022-10-17T14:24:46;8.20;;;3.47;;
9671;SDS011;4874;43.568;27.824;2022-10-17T14:30:03;5.93;;;3.28;;
9671;SDS011;4874;43.568;27.824;2022-10-17T14:32:32;6.53;;;3.78;;
9671;SDS011;4874;43.568;27.824;2022-10-17T14:35:02;6.72;;;4.13;;
9671;SDS011;4874;43.568;27.824;2022-10-17T14:37:51;7.38;;;3.67;;
9671;SDS011;4874;43.568;27.824;2022-10-17T14:40:22;7.13;;;3.30;;
9671;SDS011;4874;43.568;27.824;2022-10-17T14:42:58;9.48;;;3.90;;
9671;SDS011;4874;43.568;27.824;2022-10-17T14:45:46;6.13;;;3.63;;
9671;SDS011;4874;43.568;27.824;2022-10-17T14:48:17;7.82;;;4.10;;
9671;SDS011;4874;43.568;27.824;2022-10-17T14:53:36;8.93;;;3.80;;
9671;SDS011;4874;43.568;27.824;2022-10-17T14:58:50;7.07;;;3.33;;
9671;SDS011;4874;43.568;27.824;2022-10-17T15:01:18;10.98;;;3.30;;
9671;SDS011;4874;43.568;27.824;2022-10-17T15:03:45;10.63;;;4.03;;
9671;SDS011;4874;43.568;27.824;2022-10-17T15:06:19;8.23;;;3.13;;
9671;SDS011;4874;43.568;27.824;2022-10-17T15:08:48;7.25;;;3.83;;
9671;SDS011;4874;43.568;27.824;2022-10-17T15:13:41;6.25;;;3.20;;
9671;SDS011;4874;43.568;27.824;2022-10-17T15:16:15;8.43;;;4.35;;
9671;SDS011;4874;43.568;27.824;2022-10-17T15:18:45;6.45;;;3.08;;
9671;SDS011;4874;43.568;27.824;2022-10-17T15:21:12;7.25;;;3.58;;
9671;SDS011;4874;43.568;27.824;2022-10-17T15:23:51;7.80;;;3.80;;
9671;SDS011;4874;43.568;27.824;2022-10-17T15:26:19;6.80;;;4.03;;
9671;SDS011;4874;43.568;27.824;2022-10-17T15:28:49;6.82;;;4.00;;
9671;SDS011;4874;43.568;27.824;2022-10-17T15:31:18;10.93;;;4.22;;
9671;SDS011;4874;43.568;27.824;2022-10-17T15:33:46;11.32;;;4.68;;
9671;SDS011;4874;43.568;27.824;2022-10-17T15:36:32;11.77;;;4.80;;
9671;SDS011;4874;43.568;27.824;2022-10-17T15:39:05;11.43;;;4.70;;
9671;SDS011;4874;43.568;27.824;2022-10-17T15:41:34;13.10;;;4.95;;
9671;SDS011;4874;43.568;27.824;2022-10-17T15:44:02;8.18;;;5.00;;
9671;SDS011;4874;43.568;27.824;2022-10-17T15:46:31;8.45;;;4.30;;
9671;SDS011;4874;43.568;27.824;2022-10-17T15:49:00;6.97;;;4.50;;
9671;SDS011;4874;43.568;27.824;2022-10-17T15:51:28;7.65;;;4.60;;
9671;SDS011;4874;43.568;27.824;2022-10-17T15:53:55;13.55;;;7.28;;
9671;SDS011;4874;43.568;27.824;2022-10-17T15:56:23;9.18;;;5.10;;
9671;SDS011;4874;43.568;27.824;2022-10-17T15:58:53;12.80;;;5.43;;
9671;SDS011;4874;43.568;27.824;2022-10-17T16:01:27;12.20;;;6.15;;
9671;SDS011;4874;43.568;27.824;2022-10-17T16:03:55;9.52;;;5.30;;
9671;SDS011;4874;43.568;27.824;2022-10-17T16:06:23;13.43;;;5.82;;
9671;SDS011;4874;43.568;27.824;2022-10-17T16:08:50;13.63;;;6.28;;
9671;SDS011;4874;43.568;27.824;2022-10-17T16:11:27;11.55;;;5.80;;
9671;SDS011;4874;43.568;27.824;2022-10-17T16:13:59;18.55;;;8.63;;
9671;SDS011;4874;43.568;27.824;2022-10-17T16:16:27;16.77;;;10.50;;
9671;SDS011;4874;43.568;27.824;2022-10-17T16:18:54;17.60;;;8.23;;
9671;SDS011;4874;43.568;27.824;2022-10-17T16:21:21;11.73;;;6.80;;
9671;SDS011;4874;43.568;27.824;2022-10-17T16:23:51;9.75;;;5.75;;
9671;SDS011;4874;43.568;27.824;2022-10-17T16:26:18;11.77;;;6.47;;
9671;SDS011;4874;43.568;27.824;2022-10-17T16:28:45;15.38;;;7.32;;
9671;SDS011;4874;43.568;27.824;2022-10-17T16:31:19;12.32;;;6.47;;
9671;SDS011;4874;43.568;27.824;2022-10-17T16:33:49;10.98;;;6.97;;
9671;SDS011;4874;43.568;27.824;2022-10-17T16:36:17;16.23;;;9.68;;
9671;SDS011;4874;43.568;27.824;2022-10-17T16:38:45;16.83;;;10.60;;
9671;SDS011;4874;43.568;27.824;2022-10-17T16:43:50;22.30;;;8.90;;
9671;SDS011;4874;43.568;27.824;2022-10-17T16:46:18;12.13;;;6.90;;
9671;SDS011;4874;43.568;27.824;2022-10-17T16:48:45;10.70;;;6.50;;
9671;SDS011;4874;43.568;27.824;2022-10-17T16:51:13;14.88;;;7.57;;
9671;SDS011;4874;43.568;27.824;2022-10-17T16:53:41;16.77;;;7.55;;
9671;SDS011;4874;43.568;27.824;2022-10-17T16:56:11;16.02;;;7.97;;
9671;SDS011;4874;43.568;27.824;2022-10-17T16:58:48;13.85;;;7.93;;
9671;SDS011;4874;43.568;27.824;2022-10-17T17:01:16;11.45;;;7.28;;
9671;SDS011;4874;43.568;27.824;2022-10-17T17:03:45;15.63;;;7.63;;
9671;SDS011;4874;43.568;27.824;2022-10-17T17:06:22;11.50;;;7.05;;
9671;SDS011;4874;43.568;27.824;2022-10-17T17:08:52;16.35;;;7.88;;
9671;SDS011;4874;43.568;27.824;2022-10-17T17:11:20;13.13;;;7.93;;
9671;SDS011;4874;43.568;27.824;2022-10-17T17:13:48;15.48;;;7.88;;
9671;SDS011;4874;43.568;27.824;2022-10-17T17:16:17;15.13;;;8.25;;
9671;SDS011;4874;43.568;27.824;2022-10-17T17:18:48;11.95;;;7.60;;
9671;SDS011;4874;43.568;27.824;2022-10-17T17:21:18;13.52;;;7.38;;
9671;SDS011;4874;43.568;27.824;2022-10-17T17:23:45;17.90;;;8.35;;
9671;SDS011;4874;43.568;27.824;2022-10-17T17:26:14;13.55;;;8.20;;
9671;SDS011;4874;43.568;27.824;2022-10-17T17:28:42;13.75;;;7.82;;
9671;SDS011;4874;43.568;27.824;2022-10-17T17:31:22;12.80;;;7.78;;
9671;SDS011;4874;43.568;27.824;2022-10-17T17:33:52;11.20;;;6.90;;
9671;SDS011;4874;43.568;27.824;2022-10-17T17:36:24;10.90;;;7.57;;
9671;SDS011;4874;43.568;27.824;2022-10-17T17:38:54;10.90;;;6.88;;
9671;SDS011;4874;43.568;27.824;2022-10-17T17:41:22;13.57;;;7.72;;
9671;SDS011;4874;43.568;27.824;2022-10-17T17:43:49;13.93;;;7.47;;
9671;SDS011;4874;43.568;27.824;2022-10-17T17:46:17;12.25;;;6.22;;
9671;SDS011;4874;43.568;27.824;2022-10-17T17:48:46;14.80;;;8.25;;
9671;SDS011;4874;43.568;27.824;2022-10-17T17:51:14;15.65;;;8.15;;
9671;SDS011;4874;43.568;27.824;2022-10-17T17:53:43;17.15;;;8.85;;
9671;SDS011;4874;43.568;27.824;2022-10-17T17:56:11;17.10;;;8.15;;
9671;SDS011;4874;43.568;27.824;2022-10-17T17:58:40;14.25;;;8.38;;
9671;SDS011;4874;43.568;27.824;2022-10-17T18:01:20;14.38;;;8.57;;
9671;SDS011;4874;43.568;27.824;2022-10-17T18:03:48;15.70;;;9.73;;
9671;SDS011;4874;43.568;27.824;2022-10-17T18:06:17;17.73;;;10.45;;
9671;SDS011;4874;43.568;27.824;2022-10-17T18:08:46;18.42;;;12.27;;
9671;SDS011;4874;43.568;27.824;2022-10-17T18:11:14;19.13;;;11.32;;
9671;SDS011;4874;43.568;27.824;2022-10-17T18:13:42;17.02;;;12.02;;
9671;SDS011;4874;43.568;27.824;2022-10-17T18:16:09;20.98;;;13.95;;
9671;SDS011;4874;43.568;27.824;2022-10-17T18:18:39;18.25;;;11.82;;
9671;SDS011;4874;43.568;27.824;2022-10-17T18:21:07;32.35;;;18.60;;
9671;SDS011;4874;43.568;27.824;2022-10-17T18:23:42;38.13;;;21.23;;
9671;SDS011;4874;43.568;27.824;2022-10-17T18:26:10;33.63;;;19.13;;
9671;SDS011;4874;43.568;27.824;2022-10-17T18:28:39;49.95;;;29.70;;
9671;SDS011;4874;43.568;27.824;2022-10-17T18:31:19;44.35;;;27.17;;
9671;SDS011;4874;43.568;27.824;2022-10-17T18:33:50;35.50;;;22.05;;
9671;SDS011;4874;43.568;27.824;2022-10-17T18:36:18;34.92;;;22.45;;
9671;SDS011;4874;43.568;27.824;2022-10-17T18:38:45;33.47;;;19.83;;
9671;SDS011;4874;43.568;27.824;2022-10-17T18:43:43;24.08;;;15.32;;
9671;SDS011;4874;43.568;27.824;2022-10-17T18:46:12;23.88;;;15.32;;
9671;SDS011;4874;43.568;27.824;2022-10-17T18:48:41;23.98;;;15.40;;